Time;durP1;ratioP1;P1;durP2;ratioP2;P2;SDS_P1;SDS_P2;PMS_P1;PMS_P2;Temp;Humidity;BMP_temperature;BMP_pressure;BME280_temperature;BME280_humidity;BME280_pressure;Samples;Min_cycle;Max_cycle;Signal;HPM_P1;HPM_P2
2021/06/10 00:02:08;;;;;;;3.38;3.17;;;24.70;44.40;;;;;;4951400;28;20272;-43
2021/06/10 00:04:34;;;;;;;3.60;3.33;;;24.70;44.40;;;;;;4952686;28;20209;-47
2021/06/10 00:07:00;;;;;;;3.20;3.00;;;24.70;44.40;;;;;;4951061;28;20654;-51
2021/06/10 00:09:26;;;;;;;3.38;3.17;;;24.70;44.40;;;;;;4951786;28;20216;-44
2021/06/10 00:11:52;;;;;;;3.72;3.53;;;24.70;44.40;;;;;;4952060;28;20200;-47
2021/06/10 00:14:18;;;;;;;3.50;3.25;;;24.70;44.30;;;;;;4951584;28;20264;-43
2021/06/10 00:16:44;;;;;;;3.58;3.38;;;24.70;44.50;;;;;;4951545;28;20597;-49
2021/06/10 00:19:12;;;;;;;3.47;3.17;;;24.80;44.40;;;;;;4951700;28;20217;-46
2021/06/10 00:21:38;;;;;;;3.83;3.53;;;24.70;44.40;;;;;;4952481;28;20293;-43
2021/06/10 00:24:04;;;;;;;3.20;3.00;;;24.70;44.40;;;;;;4950358;28;20209;-47
2021/06/10 00:26:30;;;;;;;3.65;3.35;;;24.70;44.40;;;;;;4951549;28;20272;-46
2021/06/10 00:28:56;;;;;;;3.45;3.15;;;24.70;44.40;;;;;;4951168;28;20661;-46
2021/06/10 00:31:22;;;;;;;3.60;3.30;;;24.70;44.40;;;;;;4951216;28;20522;-49
2021/06/10 00:33:48;;;;;;;3.10;2.90;;;24.70;44.30;;;;;;4951485;28;20204;-46
2021/06/10 00:36:14;;;;;;;3.42;3.13;;;24.70;44.30;;;;;;4951154;28;20273;-46
2021/06/10 00:38:40;;;;;;;3.25;3.05;;;24.70;44.40;;;;;;4950231;28;20201;-43
2021/06/10 00:41:06;;;;;;;3.50;3.30;;;24.70;44.40;;;;;;4951904;29;20202;-49
2021/06/10 00:43:32;;;;;;;3.88;3.35;;;24.70;44.40;;;;;;4951609;28;20275;-48
2021/06/10 00:45:58;;;;;;;3.10;2.90;;;24.70;44.40;;;;;;4951131;28;20640;-49
2021/06/10 00:48:23;;;;;;;3.67;3.38;;;24.70;44.40;;;;;;4950538;28;20217;-48
2021/06/10 00:50:51;;;;;;;3.45;3.25;;;24.70;44.40;;;;;;4951471;29;20659;-50
2021/06/10 00:53:21;;;;;;;3.72;3.45;;;24.70;44.40;;;;;;4950007;28;20715;-45
2021/06/10 00:55:47;;;;;;;3.67;3.38;;;24.70;44.40;;;;;;4950867;28;20776;-44
2021/06/10 00:58:13;;;;;;;3.53;3.33;;;24.70;44.40;;;;;;4951863;28;20205;-48
2021/06/10 01:00:39;;;;;;;3.30;3.10;;;24.70;44.40;;;;;;4950808;28;20661;-48
2021/06/10 01:03:05;;;;;;;3.42;3.22;;;24.70;44.40;;;;;;4950318;28;20209;-45
2021/06/10 01:05:31;;;;;;;3.53;3.22;;;24.70;44.40;;;;;;4954632;28;20292;-45
2021/06/10 01:07:57;;;;;;;3.67;3.40;;;24.70;44.40;;;;;;4954416;28;20212;-45
2021/06/10 01:10:23;;;;;;;3.28;3.08;;;24.70;44.40;;;;;;4953773;28;20698;-50
2021/06/10 01:12:49;;;;;;;3.22;3.03;;;24.70;44.50;;;;;;4955464;28;20553;-50
2021/06/10 01:15:15;;;;;;;3.55;3.25;;;24.70;44.40;;;;;;4953873;28;20240;-43
2021/06/10 01:17:43;;;;;;;3.60;3.28;;;24.70;44.40;;;;;;4954913;28;20198;-44
2021/06/10 01:20:09;;;;;;;3.50;3.20;;;24.70;44.50;;;;;;4954190;28;20571;-50
2021/06/10 01:22:35;;;;;;;3.25;3.05;;;24.70;44.50;;;;;;4955226;28;20205;-47
2021/06/10 01:25:01;;;;;;;3.42;3.13;;;24.70;44.50;;;;;;4953499;28;20697;-48
2021/06/10 01:27:27;;;;;;;3.55;3.33;;;24.70;44.50;;;;;;4954803;29;20204;-46
2021/06/10 01:29:53;;;;;;;4.50;3.45;;;24.70;44.50;;;;;;4953511;28;20205;-47
2021/06/10 01:32:19;;;;;;;3.03;2.83;;;24.70;44.40;;;;;;4955074;28;20201;-47
2021/06/10 01:34:45;;;;;;;2.72;2.53;;;24.70;44.50;;;;;;4954402;28;20233;-45
2021/06/10 01:37:11;;;;;;;3.13;2.90;;;24.70;44.50;;;;;;4953256;28;20606;-48
2021/06/10 01:39:37;;;;;;;3.13;2.92;;;24.70;44.50;;;;;;4952204;28;20197;-46
2021/06/10 01:42:03;;;;;;;3.88;3.58;;;24.70;44.50;;;;;;4954717;28;20221;-51
2021/06/10 01:44:28;;;;;;;3.22;3.03;;;24.70;44.40;;;;;;4955193;28;20202;-46
2021/06/10 01:46:54;;;;;;;3.65;3.38;;;24.70;44.50;;;;;;4951670;28;20213;-44
2021/06/10 01:49:20;;;;;;;3.20;3.00;;;24.70;44.50;;;;;;4948994;28;20228;-50
2021/06/10 01:51:46;;;;;;;3.10;2.90;;;24.70;44.50;;;;;;4953017;28;20213;-46
2021/06/10 01:54:12;;;;;;;3.38;3.08;;;24.70;44.50;;;;;;4954733;28;20201;-46
2021/06/10 01:56:38;;;;;;;3.30;3.00;;;24.70;44.50;;;;;;4952938;28;20282;-44
2021/06/10 01:59:04;;;;;;;3.25;3.05;;;24.70;44.50;;;;;;4953454;29;20216;-49
2021/06/10 02:01:30;;;;;;;3.30;3.00;;;24.70;44.50;;;;;;4953136;28;20760;-43
2021/06/10 02:03:56;;;;;;;3.42;3.13;;;24.70;44.50;;;;;;4953381;29;20236;-49
2021/06/10 02:06:22;;;;;;;3.15;2.95;;;24.70;44.50;;;;;;4952317;28;20621;-52
2021/06/10 02:08:48;;;;;;;3.15;2.90;;;24.70;44.50;;;;;;4954696;28;20212;-46
2021/06/10 02:11:14;;;;;;;2.90;2.70;;;24.70;45.20;;;;;;4953853;28;20586;-50
2021/06/10 02:13:40;;;;;;;3.30;3.00;;;24.70;44.50;;;;;;4954350;29;20205;-49
2021/06/10 02:16:06;;;;;;;2.95;2.75;;;24.70;45.20;;;;;;4952044;28;20233;-50
2021/06/10 02:18:32;;;;;;;3.67;3.00;;;24.70;44.50;;;;;;4954346;28;20197;-52
2021/06/10 02:20:58;;;;;;;3.42;3.13;;;24.70;44.60;;;;;;4953502;28;20524;-48
2021/06/10 02:23:24;;;;;;;3.58;3.28;;;24.70;44.50;;;;;;4953578;28;20300;-46
2021/06/10 02:25:50;;;;;;;3.30;3.10;;;24.70;44.50;;;;;;4953342;28;20233;-45
2021/06/10 02:28:16;;;;;;;3.03;2.83;;;24.70;44.50;;;;;;4953849;28;20213;-44
2021/06/10 02:30:42;;;;;;;3.20;3.00;;;24.70;44.50;;;;;;4953480;28;20216;-46
2021/06/10 02:33:08;;;;;;;3.10;2.75;;;24.70;44.60;;;;;;4953156;28;20630;-43
2021/06/10 02:35:34;;;;;;;3.40;3.10;;;24.70;44.50;;;;;;4953340;28;20229;-45
2021/06/10 02:38:00;;;;;;;3.13;2.92;;;24.70;44.50;;;;;;4950648;28;20209;-49
2021/06/10 02:40:26;;;;;;;3.60;3.30;;;24.70;44.50;;;;;;4953117;28;20201;-50
2021/06/10 02:42:52;;;;;;;3.42;3.10;;;24.70;44.50;;;;;;4952958;28;20201;-48
2021/06/10 02:45:18;;;;;;;3.30;3.10;;;24.70;44.50;;;;;;4953888;28;20217;-51
2021/06/10 02:47:44;;;;;;;3.20;3.00;;;24.70;44.50;;;;;;4952627;28;20280;-49
2021/06/10 02:50:10;;;;;;;3.20;3.00;;;24.70;44.60;;;;;;4953623;28;20661;-43
2021/06/10 02:52:36;;;;;;;3.30;2.97;;;24.70;44.50;;;;;;4952201;28;20316;-50
2021/06/10 02:55:02;;;;;;;3.63;3.33;;;24.70;44.50;;;;;;4952186;28;20245;-48
2021/06/10 02:57:28;;;;;;;3.03;2.80;;;24.70;44.50;;;;;;4952591;28;20205;-48
2021/06/10 02:59:54;;;;;;;3.10;2.80;;;24.70;44.60;;;;;;4953238;28;20243;-49
2021/06/10 03:02:20;;;;;;;3.03;2.80;;;24.70;44.60;;;;;;4952848;28;20646;-48
2021/06/10 03:04:46;;;;;;;3.42;3.13;;;24.70;44.60;;;;;;4952987;28;20233;-50
2021/06/10 03:07:11;;;;;;;3.03;2.80;;;24.70;44.60;;;;;;4951775;28;20205;-49
2021/06/10 03:09:37;;;;;;;3.85;2.92;;;24.70;44.60;;;;;;4953098;28;20216;-48
2021/06/10 03:12:03;;;;;;;3.10;2.90;;;24.70;44.60;;;;;;4951970;28;20211;-45
2021/06/10 03:14:29;;;;;;;3.45;3.15;;;24.70;44.60;;;;;;4952107;28;20225;-46
2021/06/10 03:16:55;;;;;;;3.10;2.90;;;24.70;44.60;;;;;;4953129;28;20667;-46
2021/06/10 03:19:21;;;;;;;2.97;2.78;;;24.70;44.60;;;;;;4951981;28;20209;-44
2021/06/10 03:21:47;;;;;;;3.47;3.17;;;24.70;44.60;;;;;;4952166;28;20209;-45
2021/06/10 03:24:13;;;;;;;3.00;2.80;;;24.70;44.60;;;;;;4952307;28;20232;-46
2021/06/10 03:26:39;;;;;;;3.17;2.95;;;24.70;44.60;;;;;;4951560;28;20263;-46
2021/06/10 03:29:06;;;;;;;3.30;3.10;;;24.70;44.60;;;;;;4952814;28;20215;-50
2021/06/10 03:31:32;;;;;;;2.97;2.78;;;24.70;44.60;;;;;;4951758;28;20205;-50
2021/06/10 03:33:58;;;;;;;3.40;3.10;;;24.70;44.60;;;;;;4952228;28;20646;-48
2021/06/10 03:36:24;;;;;;;3.35;3.05;;;24.70;44.60;;;;;;4952294;29;20264;-45
2021/06/10 03:38:50;;;;;;;3.10;2.90;;;24.70;44.60;;;;;;4952358;28;20248;-48
2021/06/10 03:41:16;;;;;;;2.90;2.70;;;24.70;44.60;;;;;;4951179;28;20235;-43
2021/06/10 03:43:42;;;;;;;2.88;2.67;;;24.70;44.50;;;;;;4952137;28;20205;-46
2021/06/10 03:46:08;;;;;;;3.03;2.83;;;24.70;44.40;;;;;;4951275;28;20719;-49
2021/06/10 03:48:33;;;;;;;3.05;2.85;;;24.70;44.50;;;;;;4950247;28;20212;-44
2021/06/10 03:50:59;;;;;;;3.03;2.83;;;24.70;44.80;;;;;;4946360;28;20217;-51
2021/06/10 03:53:25;;;;;;;3.33;3.13;;;24.70;44.80;;;;;;4951579;28;20205;-45
2021/06/10 03:55:51;;;;;;;3.00;2.70;;;24.70;44.90;;;;;;4951986;28;20756;-47
2021/06/10 03:58:21;;;;;;;2.90;2.70;;;24.70;44.90;;;;;;4950909;28;20216;-45
2021/06/10 04:00:47;;;;;;;3.08;2.88;;;24.70;44.90;;;;;;4950761;28;20229;-46
2021/06/10 04:03:13;;;;;;;3.13;2.78;;;24.70;44.90;;;;;;4951064;28;20206;-45
2021/06/10 04:05:39;;;;;;;3.15;2.95;;;24.70;44.80;;;;;;4944940;29;20217;-43
2021/06/10 04:08:05;;;;;;;3.25;3.05;;;24.70;44.80;;;;;;4952044;28;20206;-44
2021/06/10 04:10:31;;;;;;;3.10;2.90;;;24.60;44.70;;;;;;4952785;28;20205;-46
2021/06/10 04:12:57;;;;;;;3.10;2.88;;;24.70;44.80;;;;;;4952119;28;20213;-43
2021/06/10 04:15:23;;;;;;;3.05;2.85;;;24.70;44.80;;;;;;4951860;29;20235;-48
2021/06/10 04:17:49;;;;;;;3.15;2.95;;;24.70;44.80;;;;;;4951040;28;20623;-43
2021/06/10 04:20:15;;;;;;;2.80;2.60;;;24.70;44.70;;;;;;4952693;29;20303;-44
2021/06/10 04:22:41;;;;;;;3.28;2.97;;;24.70;44.70;;;;;;4950877;28;20292;-47
2021/06/10 04:25:07;;;;;;;2.92;2.72;;;24.70;44.70;;;;;;4950969;28;20280;-47
2021/06/10 04:27:33;;;;;;;3.38;3.08;;;24.70;44.70;;;;;;4950583;28;20214;-49
2021/06/10 04:29:59;;;;;;;2.95;2.75;;;24.70;44.70;;;;;;4952552;28;20205;-48
2021/06/10 04:32:25;;;;;;;2.83;2.63;;;24.70;44.70;;;;;;4950596;28;20213;-44
2021/06/10 04:34:51;;;;;;;2.75;2.55;;;24.70;44.70;;;;;;4951310;28;20595;-47
2021/06/10 04:37:18;;;;;;;3.08;2.78;;;24.70;44.70;;;;;;4951817;28;20324;-48
2021/06/10 04:39:43;;;;;;;3.17;2.95;;;24.60;44.60;;;;;;4952824;28;20201;-47
2021/06/10 04:42:09;;;;;;;3.08;2.88;;;24.70;44.70;;;;;;4956233;28;20260;-45
2021/06/10 04:44:35;;;;;;;3.08;2.85;;;24.70;44.60;;;;;;4953765;28;20680;-42
2021/06/10 04:47:04;;;;;;;2.97;2.78;;;24.70;44.60;;;;;;4955732;28;20197;-46
2021/06/10 04:49:33;;;;;;;3.00;2.72;;;24.70;44.60;;;;;;4955635;28;20235;-45
2021/06/10 04:51:59;;;;;;;3.67;2.60;;;24.70;45.30;;;;;;4955910;28;20197;-45
2021/06/10 04:54:25;;;;;;;3.03;2.83;;;24.70;44.60;;;;;;4953599;28;20225;-43
2021/06/10 04:56:51;;;;;;;3.28;3.00;;;24.70;44.60;;;;;;4951784;28;20226;-45
2021/06/10 04:59:17;;;;;;;3.13;2.83;;;24.70;44.60;;;;;;4953610;28;20649;-46
2021/06/10 05:01:43;;;;;;;3.10;2.90;;;24.70;44.60;;;;;;4954368;28;21966;-44
2021/06/10 05:04:09;;;;;;;3.35;3.13;;;24.70;44.60;;;;;;4955456;28;20221;-48
2021/06/10 05:06:35;;;;;;;2.90;2.65;;;24.70;44.50;;;;;;4938090;28;20210;-43
2021/06/10 05:09:01;;;;;;;3.85;2.78;;;24.70;44.40;;;;;;4955481;28;20413;-48
2021/06/10 05:11:27;;;;;;;2.78;2.58;;;24.70;44.40;;;;;;4955155;29;20230;-50
2021/06/10 05:13:53;;;;;;;3.08;2.88;;;24.70;44.50;;;;;;4954871;28;20233;-46
2021/06/10 05:16:19;;;;;;;3.05;2.85;;;24.70;44.60;;;;;;4954928;28;20639;-48
2021/06/10 05:18:45;;;;;;;2.63;2.42;;;24.70;44.60;;;;;;4954034;28;20220;-46
2021/06/10 05:21:11;;;;;;;3.75;2.60;;;24.70;44.70;;;;;;4955338;29;20275;-46
2021/06/10 05:23:38;;;;;;;2.92;2.72;;;24.70;44.80;;;;;;4953846;28;20208;-42
2021/06/10 05:26:04;;;;;;;3.30;3.00;;;24.70;44.80;;;;;;4953714;28;20210;-48
2021/06/10 05:28:34;;;;;;;3.35;3.05;;;24.70;44.90;;;;;;4953568;28;20209;-45
2021/06/10 05:31:00;;;;;;;2.88;2.67;;;24.70;44.90;;;;;;4954216;28;20213;-42
2021/06/10 05:33:26;;;;;;;3.15;2.90;;;24.70;44.90;;;;;;4954733;29;20216;-46
2021/06/10 05:35:52;;;;;;;3.53;3.20;;;24.70;44.90;;;;;;4950300;28;20708;-47
2021/06/10 05:38:18;;;;;;;3.03;2.83;;;24.70;44.50;;;;;;4954284;28;20209;-45
2021/06/10 05:40:44;;;;;;;3.55;3.00;;;24.70;44.40;;;;;;4950430;28;20213;-43
2021/06/10 05:43:10;;;;;;;2.97;2.78;;;24.80;45.20;;;;;;4960622;28;20220;-47
2021/06/10 05:45:36;;;;;;;3.13;2.65;;;24.80;45.10;;;;;;4952768;28;20271;-50
2021/06/10 05:48:02;;;;;;;3.42;3.00;;;24.80;45.30;;;;;;4954272;28;20201;-47
2021/06/10 05:50:28;;;;;;;3.00;2.58;;;24.80;45.40;;;;;;4951783;28;20291;-49
2021/06/10 05:52:54;;;;;;;6.78;6.13;;;24.80;44.40;;;;;;4966723;28;20620;-53
2021/06/10 05:55:20;;;;;;;7.85;6.82;;;23.80;44.80;;;;;;4951112;28;20225;-53
2021/06/10 05:57:46;;;;;;;6.28;5.38;;;23.70;44.80;;;;;;4943564;28;20582;-50
2021/06/10 06:00:12;;;;;;;6.88;5.40;;;23.70;45.80;;;;;;4952125;28;20220;-50
2021/06/10 06:02:38;;;;;;;5.30;4.85;;;24.10;45.50;;;;;;4958476;28;20732;-51
2021/06/10 06:05:04;;;;;;;5.40;4.05;;;24.30;45.00;;;;;;4955143;28;20244;-52
2021/06/10 06:07:30;;;;;;;5.53;4.13;;;24.50;45.00;;;;;;4953198;28;20284;-51
2021/06/10 06:09:56;;;;;;;4.35;3.95;;;24.50;44.70;;;;;;4954793;29;20209;-52
2021/06/10 06:12:23;;;;;;;6.15;4.68;;;24.60;44.50;;;;;;4954676;28;20201;-51
2021/06/10 06:14:49;;;;;;;4.30;3.90;;;24.70;44.60;;;;;;4952161;28;20350;-49
2021/06/10 06:17:15;;;;;;;4.47;3.88;;;24.70;44.60;;;;;;4955747;28;20280;-48
2021/06/10 06:19:41;;;;;;;4.30;3.88;;;24.70;44.60;;;;;;4938096;29;20522;-47
2021/06/10 06:22:07;;;;;;;5.50;4.18;;;24.70;44.60;;;;;;4953443;28;20223;-47
2021/06/10 06:24:33;;;;;;;5.03;3.90;;;24.70;44.60;;;;;;4953034;28;20724;-48
2021/06/10 06:26:59;;;;;;;5.28;4.10;;;24.70;46.40;;;;;;4953412;28;20205;-47
2021/06/10 06:29:25;;;;;;;4.57;4.18;;;24.70;45.50;;;;;;4953618;28;20555;-46
2021/06/10 06:31:51;;;;;;;4.85;3.92;;;24.80;46.00;;;;;;4953027;28;20205;-49
2021/06/10 06:34:17;;;;;;;5.22;3.55;;;24.80;46.00;;;;;;4954143;28;20653;-47
2021/06/10 06:36:43;;;;;;;3.78;3.40;;;24.80;46.10;;;;;;4951284;28;20229;-47
2021/06/10 06:39:09;;;;;;;4.85;3.50;;;24.80;45.90;;;;;;4949610;28;20677;-47
2021/06/10 06:41:36;;;;;;;4.13;3.13;;;24.90;46.20;;;;;;4952638;28;20261;-47
2021/06/10 06:44:02;;;;;;;5.65;3.65;;;24.80;45.70;;;;;;4952500;28;20229;-48
2021/06/10 06:46:28;;;;;;;4.90;3.38;;;24.90;45.50;;;;;;4961129;28;20235;-48
2021/06/10 06:48:53;;;;;;;4.70;3.20;;;24.90;45.60;;;;;;4951818;28;20247;-48
2021/06/10 06:51:19;;;;;;;5.57;3.15;;;24.90;46.00;;;;;;4958145;28;20209;-47
2021/06/10 06:53:45;;;;;;;4.05;2.80;;;24.90;45.70;;;;;;4963218;28;20225;-47
2021/06/10 06:56:11;;;;;;;3.55;3.25;;;24.90;45.80;;;;;;4952822;28;20225;-47
2021/06/10 06:58:38;;;;;;;3.60;3.30;;;25.00;46.70;;;;;;4947332;28;20207;-46
2021/06/10 07:01:04;;;;;;;3.35;2.53;;;25.00;46.90;;;;;;4956511;28;20201;-51
2021/06/10 07:03:30;;;;;;;3.65;3.13;;;25.00;46.60;;;;;;4953742;28;20205;-50
2021/06/10 07:05:56;;;;;;;3.45;2.97;;;25.00;46.00;;;;;;4948657;28;20228;-49
2021/06/10 07:08:22;;;;;;;3.53;2.70;;;25.00;47.20;;;;;;4951044;28;20216;-51
2021/06/10 07:10:53;;;;;;;3.53;2.80;;;25.00;47.00;;;;;;4958805;28;20212;-48
2021/06/10 07:13:19;;;;;;;7.72;3.10;;;25.00;46.60;;;;;;4950823;28;20212;-44
2021/06/10 07:15:45;;;;;;;4.45;3.05;;;25.00;47.00;;;;;;4950242;28;20312;-45
2021/06/10 07:18:11;;;;;;;3.70;2.58;;;25.00;47.10;;;;;;4953360;28;20205;-48
2021/06/10 07:20:37;;;;;;;3.58;3.08;;;25.00;47.10;;;;;;4959918;28;20635;-45
2021/06/10 07:23:03;;;;;;;3.00;2.70;;;25.00;46.70;;;;;;4953855;28;20217;-47
2021/06/10 07:25:29;;;;;;;3.47;2.90;;;24.90;47.20;;;;;;4953465;28;20234;-48
2021/06/10 07:27:55;;;;;;;3.55;2.80;;;25.00;46.80;;;;;;4951484;28;20209;-47
2021/06/10 07:30:21;;;;;;;7.15;3.10;;;25.00;46.60;;;;;;4959227;28;20216;-47
2021/06/10 07:32:47;;;;;;;3.17;2.58;;;25.00;47.10;;;;;;4953989;28;20736;-47
2021/06/10 07:35:14;;;;;;;3.13;2.67;;;25.00;46.10;;;;;;4950620;28;20233;-47
2021/06/10 07:37:40;;;;;;;2.97;2.60;;;25.00;45.70;;;;;;4953134;28;20315;-48
2021/06/10 07:40:06;;;;;;;3.05;2.40;;;25.00;45.70;;;;;;4951636;28;20312;-53
2021/06/10 07:42:32;;;;;;;4.88;2.22;;;25.00;45.70;;;;;;4952455;28;20209;-52
2021/06/10 07:44:58;;;;;;;5.93;2.92;;;25.00;45.20;;;;;;4951667;28;20229;-51
2021/06/10 07:47:24;;;;;;;3.03;2.67;;;25.00;45.10;;;;;;4951737;28;20300;-54
2021/06/10 07:49:50;;;;;;;4.25;2.65;;;25.00;45.30;;;;;;4963678;28;20620;-52
2021/06/10 07:52:16;;;;;;;3.00;2.50;;;25.10;45.10;;;;;;4953864;28;20209;-53
2021/06/10 07:54:42;;;;;;;3.72;2.13;;;25.10;45.40;;;;;;4952920;28;20225;-47
2021/06/10 07:57:09;;;;;;;4.05;2.50;;;25.10;45.00;;;;;;4959484;28;20236;-50
2021/06/10 07:59:36;;;;;;;2.63;2.40;;;25.10;45.80;;;;;;4953367;28;20233;-50
2021/06/10 08:02:02;;;;;;;4.70;2.22;;;25.10;45.10;;;;;;4951972;28;20229;-48
2021/06/10 08:04:28;;;;;;;5.82;2.97;;;25.10;46.50;;;;;;4951734;28;20233;-50
2021/06/10 08:06:54;;;;;;;2.85;2.40;;;25.10;46.30;;;;;;4954549;28;20206;-53
2021/06/10 08:09:20;;;;;;;3.35;2.30;;;25.10;45.70;;;;;;4958778;28;20256;-50
2021/06/10 08:11:46;;;;;;;3.75;2.35;;;25.10;45.80;;;;;;4948943;28;20201;-51
2021/06/10 08:14:12;;;;;;;3.15;2.35;;;25.10;45.40;;;;;;4948610;28;20630;-52
2021/06/10 08:16:38;;;;;;;2.88;2.58;;;25.10;45.10;;;;;;4950636;28;20311;-51
2021/06/10 08:19:04;;;;;;;3.10;2.53;;;25.10;45.10;;;;;;4962826;28;20248;-48
2021/06/10 08:21:30;;;;;;;3.05;2.40;;;25.10;45.00;;;;;;4957246;28;20740;-52
2021/06/10 08:23:56;;;;;;;2.97;2.42;;;25.10;44.90;;;;;;4962594;28;20235;-48
2021/06/10 08:26:22;;;;;;;2.67;2.47;;;25.10;44.90;;;;;;4954188;28;20205;-49
2021/06/10 08:28:48;;;;;;;3.53;2.55;;;25.10;44.80;;;;;;4954222;28;20220;-48
2021/06/10 08:31:16;;;;;;;4.32;2.97;;;25.10;44.90;;;;;;4955268;28;20566;-49
2021/06/10 08:33:42;;;;;;;3.42;2.55;;;25.10;45.60;;;;;;4951599;28;20735;-48
2021/06/10 08:36:08;;;;;;;2.40;2.20;;;25.10;45.30;;;;;;4949771;28;20240;-50
2021/06/10 08:38:34;;;;;;;2.40;2.20;;;25.10;45.10;;;;;;4962189;28;20209;-51
2021/06/10 08:41:00;;;;;;;3.45;2.40;;;25.10;45.10;;;;;;4945342;28;20205;-51
2021/06/10 08:43:26;;;;;;;2.85;2.55;;;25.10;45.30;;;;;;4947628;28;20228;-51
2021/06/10 08:45:51;;;;;;;3.63;2.70;;;25.10;45.80;;;;;;4946092;28;20658;-46
2021/06/10 08:48:17;;;;;;;3.45;2.55;;;25.10;45.50;;;;;;4970452;28;20200;-65
2021/06/10 08:50:43;;;;;;;3.45;3.00;;;25.10;45.10;;;;;;4951853;28;20220;-46
2021/06/10 08:53:11;;;;;;;3.65;3.20;;;25.20;46.10;;;;;;4949796;28;20229;-47
2021/06/10 08:55:37;;;;;;;2.90;2.70;;;25.20;45.90;;;;;;4951624;28;20198;-47
2021/06/10 08:58:03;;;;;;;4.25;2.70;;;25.20;45.50;;;;;;4955321;28;20579;-48
2021/06/10 09:00:29;;;;;;;2.95;2.75;;;25.20;45.50;;;;;;4951952;28;20316;-46
2021/06/10 09:02:55;;;;;;;4.10;3.30;;;25.20;45.20;;;;;;4948671;28;20233;-45
2021/06/10 09:05:21;;;;;;;3.17;2.97;;;25.20;46.10;;;;;;4951769;29;20209;-48
2021/06/10 09:07:47;;;;;;;3.78;3.05;;;25.10;45.60;;;;;;4953769;28;20205;-47
2021/06/10 09:10:13;;;;;;;4.13;3.67;;;25.20;45.40;;;;;;4951738;29;20220;-45
2021/06/10 09:12:39;;;;;;;3.20;2.90;;;25.10;45.20;;;;;;4950864;28;20276;-48
2021/06/10 09:15:09;;;;;;;3.40;3.10;;;25.10;46.50;;;;;;4938552;28;20209;-47
2021/06/10 09:17:35;;;;;;;3.10;2.83;;;25.10;46.30;;;;;;4948570;28;20241;-44
2021/06/10 09:20:01;;;;;;;4.68;2.88;;;25.10;45.80;;;;;;4951883;28;20630;-49
2021/06/10 09:22:27;;;;;;;5.07;3.22;;;25.10;45.40;;;;;;4966396;23;20300;-46
2021/06/10 09:24:53;;;;;;;3.65;3.13;;;25.10;45.50;;;;;;4982578;28;20209;-48
2021/06/10 09:27:19;;;;;;;3.53;2.45;;;25.10;45.70;;;;;;4990844;28;20215;-50
2021/06/10 09:29:45;;;;;;;7.20;3.13;;;25.10;45.50;;;;;;4994099;28;20213;-48
2021/06/10 09:32:11;;;;;;;5.72;2.90;;;25.10;45.40;;;;;;4989191;28;20717;-53
2021/06/10 09:34:37;;;;;;;4.00;2.90;;;25.10;45.20;;;;;;4991500;28;20208;-51
2021/06/10 09:37:03;;;;;;;3.40;3.10;;;25.10;45.70;;;;;;4992812;28;20239;-48
2021/06/10 09:39:29;;;;;;;3.97;2.75;;;25.10;45.40;;;;;;4994200;28;20207;-48
2021/06/10 09:41:55;;;;;;;2.88;2.50;;;25.10;45.10;;;;;;4993430;28;20207;-47
2021/06/10 09:44:21;;;;;;;3.20;2.85;;;25.10;45.30;;;;;;4992982;28;20532;-47
2021/06/10 09:46:47;;;;;;;4.40;2.60;;;25.10;45.30;;;;;;4986305;28;20201;-49
2021/06/10 09:49:13;;;;;;;3.88;2.70;;;25.20;45.20;;;;;;4992381;28;20203;-48
2021/06/10 09:51:39;;;;;;;4.22;2.88;;;25.10;45.20;;;;;;4989098;28;20200;-49
2021/06/10 09:54:05;;;;;;;3.00;2.78;;;25.20;45.80;;;;;;4988311;28;20223;-48
2021/06/10 09:56:31;;;;;;;3.10;2.80;;;25.20;45.50;;;;;;4988789;28;20227;-48
2021/06/10 09:59:04;;;;;;;5.70;3.15;;;25.20;45.50;;;;;;4992908;28;20216;-53
2021/06/10 10:01:30;;;;;;;3.50;2.92;;;25.20;45.80;;;;;;4992235;28;20598;-50
2021/06/10 10:03:56;;;;;;;3.22;2.70;;;25.20;45.90;;;;;;4993648;28;20203;-50
2021/06/10 10:06:23;;;;;;;4.15;3.53;;;25.20;46.10;;;;;;4991858;28;20208;-51
2021/06/10 10:08:49;;;;;;;3.50;3.20;;;25.10;45.40;;;;;;4992234;28;20196;-49
2021/06/10 10:11:15;;;;;;;3.22;2.80;;;25.20;45.30;;;;;;4993096;28;20215;-54
2021/06/10 10:13:41;;;;;;;3.90;3.45;;;25.20;45.20;;;;;;4991551;28;20291;-53
2021/06/10 10:16:07;;;;;;;3.50;2.70;;;25.20;46.00;;;;;;4987362;28;20219;-48
2021/06/10 10:18:33;;;;;;;3.05;2.75;;;25.20;45.40;;;;;;4992885;28;20566;-49
2021/06/10 10:20:59;;;;;;;3.40;3.10;;;25.10;45.20;;;;;;4978031;28;20200;-52
2021/06/10 10:23:25;;;;;;;6.22;3.10;;;25.20;45.70;;;;;;4989692;28;20231;-47
2021/06/10 10:25:53;;;;;;;4.25;2.90;;;25.20;46.00;;;;;;4991979;28;20262;-50
2021/06/10 10:28:19;;;;;;;4.05;3.00;;;25.20;47.10;;;;;;4990842;28;20438;-48
2021/06/10 10:30:45;;;;;;;11.05;3.50;;;25.20;46.80;;;;;;4992698;28;20227;-53
2021/06/10 10:33:11;;;;;;;3.97;2.92;;;25.20;46.20;;;;;;4990978;28;20681;-50
2021/06/10 10:35:37;;;;;;;5.57;3.05;;;25.20;45.80;;;;;;4991706;28;20311;-50
2021/06/10 10:38:03;;;;;;;4.10;3.10;;;25.20;45.40;;;;;;4992004;28;20211;-51
2021/06/10 10:40:29;;;;;;;8.15;4.47;;;25.30;46.10;;;;;;4991958;28;20199;-51
2021/06/10 10:42:55;;;;;;;4.38;3.20;;;25.20;46.30;;;;;;4990699;28;20231;-48
2021/06/10 10:45:21;;;;;;;4.00;3.28;;;25.20;45.70;;;;;;4990874;28;20208;-48
2021/06/10 10:47:48;;;;;;;3.70;3.38;;;25.20;45.90;;;;;;4991280;28;20203;-52
2021/06/10 10:50:18;;;;;;;4.65;3.22;;;25.20;45.90;;;;;;4991221;28;20269;-51
2021/06/10 10:52:48;;;;;;;3.83;3.30;;;25.20;46.00;;;;;;4992229;28;20674;-49
2021/06/10 10:55:14;;;;;;;4.60;3.60;;;25.20;45.80;;;;;;4990444;28;20208;-47
2021/06/10 10:57:41;;;;;;;4.90;3.65;;;25.20;45.30;;;;;;4990914;28;20234;-51
2021/06/10 11:00:07;;;;;;;5.03;4.00;;;25.20;44.90;;;;;;4991467;28;20207;-53
2021/06/10 11:02:36;;;;;;;4.10;3.80;;;25.20;44.60;;;;;;4990489;28;20224;-47
2021/06/10 11:05:04;;;;;;;4.68;4.13;;;25.20;44.70;;;;;;4991616;28;20235;-51
2021/06/10 11:07:30;;;;;;;4.90;4.50;;;25.20;44.40;;;;;;4989309;28;20215;-46
2021/06/10 11:09:56;;;;;;;4.88;4.25;;;25.20;44.40;;;;;;4992137;28;20645;-46
2021/06/10 11:12:22;;;;;;;4.03;3.70;;;25.20;43.90;;;;;;4990738;28;20227;-46
2021/06/10 11:14:51;;;;;;;4.57;4.15;;;25.20;43.90;;;;;;4992074;28;20679;-48
2021/06/10 11:17:17;;;;;;;4.68;4.22;;;25.20;43.90;;;;;;4987978;28;20232;-46
2021/06/10 11:19:43;;;;;;;4.57;3.85;;;25.20;43.70;;;;;;4983258;28;20687;-50
2021/06/10 11:22:09;;;;;;;6.60;5.32;;;25.20;43.90;;;;;;4991861;28;20270;-47
2021/06/10 11:24:35;;;;;;;6.13;4.53;;;25.20;45.00;;;;;;4988562;28;20571;-45
2021/06/10 11:27:01;;;;;;;5.10;4.43;;;25.20;44.00;;;;;;4990240;28;20258;-51
2021/06/10 11:29:27;;;;;;;5.10;4.60;;;25.20;44.40;;;;;;4987223;28;20661;-49
2021/06/10 11:31:53;;;;;;;5.07;4.50;;;25.20;44.20;;;;;;4990591;28;20330;-48
2021/06/10 11:34:19;;;;;;;4.38;4.05;;;25.30;44.30;;;;;;4991236;28;20677;-50
2021/06/10 11:36:45;;;;;;;4.60;4.28;;;25.20;44.30;;;;;;4983776;28;20240;-52
2021/06/10 11:39:17;;;;;;;5.10;4.13;;;25.20;44.40;;;;;;4990770;28;20208;-45
2021/06/10 11:41:43;;;;;;;5.10;4.60;;;25.20;44.40;;;;;;4991394;28;20302;-46
2021/06/10 11:44:09;;;;;;;5.28;4.88;;;25.20;44.00;;;;;;4990599;28;20685;-47
2021/06/10 11:46:38;;;;;;;5.90;5.43;;;25.20;43.90;;;;;;4990735;28;20219;-47
2021/06/10 11:49:04;;;;;;;5.63;5.07;;;25.20;43.90;;;;;;4990128;28;20347;-48
2021/06/10 11:51:31;;;;;;;5.85;5.35;;;25.20;43.60;;;;;;4979086;28;20702;-47
2021/06/10 11:53:56;;;;;;;5.68;5.18;;;25.20;43.50;;;;;;4975933;28;20208;-49
2021/06/10 11:56:23;;;;;;;5.78;5.32;;;25.20;43.10;;;;;;4979911;28;20375;-46
2021/06/10 11:58:50;;;;;;;7.35;5.22;;;25.20;43.40;;;;;;4989274;28;20214;-46
2021/06/10 12:01:16;;;;;;;6.10;5.60;;;25.20;43.60;;;;;;4988573;28;20220;-48
2021/06/10 12:03:45;;;;;;;6.32;5.18;;;25.20;43.40;;;;;;4990415;28;20203;-46
2021/06/10 12:06:11;;;;;;;4.43;4.10;;;25.20;43.70;;;;;;4988984;28;20207;-46
2021/06/10 12:08:37;;;;;;;4.55;4.15;;;25.20;43.90;;;;;;4985846;28;20680;-46
2021/06/10 12:11:03;;;;;;;4.43;4.03;;;25.20;43.90;;;;;;4985524;28;20227;-48
2021/06/10 12:13:29;;;;;;;4.85;4.43;;;25.20;43.90;;;;;;4987578;28;21795;-46
2021/06/10 12:15:55;;;;;;;5.30;4.70;;;25.20;43.90;;;;;;4982281;28;20208;-51
2021/06/10 12:18:21;;;;;;;4.82;4.30;;;25.20;43.90;;;;;;4975613;28;20267;-49
2021/06/10 12:20:47;;;;;;;5.05;4.47;;;25.20;43.90;;;;;;4989654;28;20199;-47
2021/06/10 12:23:13;;;;;;;4.65;4.13;;;25.20;43.90;;;;;;4988925;28;20684;-51
2021/06/10 12:25:39;;;;;;;4.70;4.38;;;25.20;43.90;;;;;;4989723;28;20208;-50
2021/06/10 12:28:05;;;;;;;4.25;3.95;;;25.20;43.90;;;;;;4991097;28;20208;-48
2021/06/10 12:30:32;;;;;;;4.78;4.38;;;25.20;43.90;;;;;;4990164;28;20275;-48
2021/06/10 12:32:58;;;;;;;5.55;5.05;;;25.20;43.90;;;;;;4990815;28;20215;-45
2021/06/10 12:35:24;;;;;;;5.05;4.65;;;25.20;43.40;;;;;;4983651;28;20658;-48
2021/06/10 12:37:50;;;;;;;5.10;4.70;;;25.20;43.50;;;;;;4980256;28;20251;-48
2021/06/10 12:40:16;;;;;;;5.25;4.85;;;25.20;43.90;;;;;;4985824;28;20212;-49
2021/06/10 12:42:42;;;;;;;4.90;4.50;;;25.20;43.90;;;;;;4989812;28;20208;-49